createdAt,value
2023-05-11T00:00:56.161Z,92632.00
2023-05-11T00:01:56.222Z,92634.00
2023-05-11T00:02:56.216Z,92630.00
2023-05-11T00:03:56.533Z,92632.00
2023-05-11T00:04:56.930Z,92630.00
2023-05-11T00:05:56.160Z,92632.00
2023-05-11T00:06:56.167Z,92632.00
2023-05-11T00:07:56.168Z,92628.00
2023-05-11T00:08:56.172Z,92630.00
2023-05-11T00:09:56.167Z,92628.00
2023-05-11T00:10:56.166Z,92626.00
2023-05-11T00:11:56.170Z,92626.00
2023-05-11T00:12:56.246Z,92626.00
2023-05-11T00:13:56.220Z,92626.00
2023-05-11T00:14:56.202Z,92624.00
2023-05-11T00:15:56.273Z,92622.00
2023-05-11T00:16:56.222Z,92624.00
2023-05-11T00:17:56.275Z,92624.00
2023-05-11T00:18:56.266Z,92624.00
2023-05-11T00:19:56.298Z,92622.00
2023-05-11T00:20:56.266Z,92622.00
2023-05-11T00:21:56.271Z,92618.00
2023-05-11T00:22:56.317Z,92618.00
2023-05-11T00:23:56.276Z,92616.00
2023-05-11T00:24:56.266Z,92618.00
2023-05-11T00:25:56.265Z,92616.00
2023-05-11T00:26:56.256Z,92616.00
2023-05-11T00:27:56.259Z,92616.00
2023-05-11T00:28:56.318Z,92614.00
2023-05-11T00:29:56.278Z,92614.00
2023-05-11T00:30:56.327Z,92612.00
2023-05-11T00:31:56.410Z,92614.00
2023-05-11T00:32:56.396Z,92608.00
2023-05-11T00:33:56.266Z,92608.00
2023-05-11T00:34:56.274Z,92606.00
2023-05-11T00:35:56.357Z,92608.00
2023-05-11T00:36:56.364Z,92608.00
2023-05-11T00:37:56.430Z,92606.00
2023-05-11T00:38:56.496Z,92604.00
2023-05-11T00:39:56.573Z,92604.00
2023-05-11T00:40:56.640Z,92606.00
2023-05-11T00:41:56.703Z,92602.00
2023-05-11T00:42:56.756Z,92602.00
2023-05-11T00:43:56.822Z,92598.00
2023-05-11T00:44:56.907Z,92602.00
2023-05-11T00:45:56.972Z,92600.00
2023-05-11T00:46:57.084Z,92602.00
2023-05-11T00:47:57.153Z,92600.00
2023-05-11T00:48:57.157Z,92602.00
2023-05-11T00:49:57.330Z,92600.00
2023-05-11T00:50:57.293Z,92602.00
2023-05-11T00:51:57.363Z,92602.00
2023-05-11T00:52:57.429Z,92596.00
2023-05-11T00:53:57.497Z,92600.00
2023-05-11T00:54:57.598Z,92598.00
2023-05-11T00:55:57.636Z,92598.00
2023-05-11T00:56:57.703Z,92602.00
2023-05-11T00:57:57.775Z,92602.00
2023-05-11T00:58:57.844Z,92602.00
2023-05-11T00:59:57.918Z,92604.00
2023-05-11T01:00:58.073Z,92600.00
2023-05-11T01:01:58.094Z,92602.00
2023-05-11T01:02:58.149Z,92604.00
2023-05-11T01:03:58.167Z,92604.00
2023-05-11T01:04:58.237Z,92606.00
2023-05-11T01:05:58.308Z,92604.00
2023-05-11T01:06:58.370Z,92606.00
2023-05-11T01:07:58.424Z,92602.00
2023-05-11T01:08:58.590Z,92604.00
2023-05-11T01:09:58.562Z,92604.00
2023-05-11T01:10:58.650Z,92602.00
2023-05-11T01:11:58.692Z,92604.00
2023-05-11T01:12:59.365Z,92602.00
2023-05-11T01:13:58.845Z,92602.00
2023-05-11T01:14:58.908Z,92602.00
2023-05-11T01:15:58.975Z,92602.00
2023-05-11T01:16:59.159Z,92598.00
2023-05-11T01:18:00.139Z,92602.00
2023-05-11T01:18:59.135Z,92602.00
2023-05-11T01:19:59.091Z,92600.00
2023-05-11T01:20:59.074Z,92602.00
2023-05-11T01:21:59.090Z,92600.00
2023-05-11T01:22:59.110Z,92600.00
2023-05-11T01:23:59.099Z,92600.00
2023-05-11T01:24:59.112Z,92600.00
2023-05-11T01:25:59.107Z,92596.00
2023-05-11T01:26:59.138Z,92600.00
2023-05-11T01:27:59.203Z,92600.00
2023-05-11T01:28:59.275Z,92600.00
2023-05-11T01:29:59.352Z,92598.00
2023-05-11T01:30:59.424Z,92598.00
2023-05-11T01:31:59.553Z,92600.00
2023-05-11T01:32:59.618Z,92598.00
2023-05-11T01:33:59.637Z,92598.00
2023-05-11T01:34:59.743Z,92594.00
2023-05-11T01:36:00.382Z,92596.00
2023-05-11T01:36:59.863Z,92596.00
2023-05-11T01:37:59.926Z,92596.00
2023-05-11T01:38:59.993Z,92598.00
2023-05-11T01:40:00.074Z,92596.00
2023-05-11T01:41:00.139Z,92594.00
2023-05-11T01:42:00.197Z,92596.00
2023-05-11T01:43:00.265Z,92596.00
2023-05-11T01:44:00.328Z,92596.00
2023-05-11T01:45:00.437Z,92594.00
2023-05-11T01:46:00.504Z,92594.00
2023-05-11T01:47:00.630Z,92596.00
2023-05-11T01:48:00.672Z,92596.00
2023-05-11T01:49:00.689Z,92596.00
2023-05-11T01:50:00.779Z,92596.00
2023-05-11T01:51:00.835Z,92591.00
2023-05-11T01:52:00.905Z,92592.00
2023-05-11T01:53:00.990Z,92594.00
2023-05-11T01:54:01.055Z,92594.00
2023-05-11T01:55:01.123Z,92592.00
2023-05-11T01:56:01.191Z,92592.00
2023-05-11T01:57:01.262Z,92591.00
2023-05-11T01:58:01.343Z,92589.00
2023-05-11T01:59:01.416Z,92589.00
2023-05-11T02:00:01.483Z,92591.00
2023-05-11T02:01:01.604Z,92591.00
2023-05-11T02:02:01.701Z,92589.00
2023-05-11T02:03:01.792Z,92589.00
2023-05-11T02:04:01.884Z,92591.00
2023-05-11T02:05:01.864Z,92591.00
2023-05-11T02:06:01.955Z,92589.00
2023-05-11T02:07:02.025Z,92589.00
2023-05-11T02:08:02.103Z,92587.00
2023-05-11T02:09:02.163Z,92589.00
2023-05-11T02:10:02.248Z,92587.00
2023-05-11T02:11:02.316Z,92589.00
2023-05-11T02:12:02.384Z,92587.00
2023-05-11T02:13:02.448Z,92589.00
2023-05-11T02:14:02.523Z,92589.00
2023-05-11T02:15:02.976Z,92587.00
2023-05-11T02:16:02.761Z,92589.00
2023-05-11T02:17:02.778Z,92585.00
2023-05-11T02:18:02.845Z,92587.00
2023-05-11T02:19:02.971Z,92587.00
2023-05-11T02:20:02.889Z,92589.00
2023-05-11T02:21:02.949Z,92587.00
2023-05-11T02:22:03.029Z,92587.00
2023-05-11T02:23:03.110Z,92585.00
2023-05-11T02:24:03.143Z,92577.00
2023-05-11T02:25:03.266Z,92573.00
2023-05-11T02:26:03.258Z,92577.00
2023-05-11T02:27:03.319Z,92575.00
2023-05-11T02:28:03.383Z,92575.00
2023-05-11T02:29:03.456Z,92577.00
2023-05-11T02:30:03.477Z,92577.00
2023-05-11T02:31:03.646Z,92577.00
2023-05-11T02:32:03.620Z,92575.00
2023-05-11T02:33:03.732Z,92575.00
2023-05-11T02:34:03.733Z,92573.00
2023-05-11T02:35:03.809Z,92575.00
2023-05-11T02:36:03.838Z,92573.00
2023-05-11T02:37:03.917Z,92573.00
2023-05-11T02:38:03.975Z,92569.00
2023-05-11T02:39:04.030Z,92573.00
2023-05-11T02:40:04.091Z,92571.00
2023-05-11T02:41:04.138Z,92571.00
2023-05-11T02:42:04.187Z,92571.00
2023-05-11T02:43:04.238Z,92571.00
2023-05-11T02:44:04.293Z,92571.00
2023-05-11T02:45:04.337Z,92573.00
2023-05-11T02:46:04.371Z,92571.00
2023-05-11T02:47:04.454Z,92573.00
2023-05-11T02:48:04.483Z,92575.00
2023-05-11T02:49:04.491Z,92573.00
2023-05-11T02:50:04.582Z,92575.00
2023-05-11T02:51:04.626Z,92573.00
2023-05-11T02:52:04.682Z,92573.00
2023-05-11T02:53:04.731Z,92573.00
2023-05-11T02:54:04.808Z,92575.00
2023-05-11T02:55:04.901Z,92575.00
2023-05-11T02:56:04.955Z,92577.00
2023-05-11T02:57:05.035Z,92577.00
2023-05-11T02:58:05.130Z,92585.00
2023-05-11T02:59:05.213Z,92577.00
2023-05-11T03:00:05.293Z,92577.00
2023-05-11T03:01:05.415Z,92577.00
2023-05-11T03:02:05.645Z,92577.00
2023-05-11T03:03:05.554Z,92571.00
2023-05-11T03:04:05.585Z,92571.00
2023-05-11T03:05:05.651Z,92571.00
2023-05-11T03:06:05.704Z,92571.00
2023-05-11T03:07:05.798Z,92569.00
2023-05-11T03:08:05.852Z,92571.00
2023-05-11T03:09:07.172Z,92571.00
2023-05-11T03:10:06.230Z,92571.00
2023-05-11T03:11:06.214Z,92573.00
2023-05-11T03:12:06.272Z,92569.00
2023-05-11T03:13:06.919Z,92569.00
2023-05-11T03:14:06.386Z,92567.00
2023-05-11T03:15:06.439Z,92567.00
2023-05-11T03:16:06.593Z,92567.00
2023-05-11T03:17:06.735Z,92567.00
2023-05-11T03:18:06.658Z,92569.00
2023-05-11T03:19:06.768Z,92561.00
2023-05-11T03:20:06.760Z,92563.00
2023-05-11T03:21:06.838Z,92563.00
2023-05-11T03:22:06.812Z,92561.00
2023-05-11T03:23:06.867Z,92563.00
2023-05-11T03:24:06.886Z,92563.00
2023-05-11T03:25:07.428Z,92561.00
2023-05-11T03:26:06.971Z,92561.00
2023-05-11T03:27:07.007Z,92563.00
2023-05-11T03:28:07.056Z,92561.00
2023-05-11T03:29:07.146Z,92561.00
2023-05-11T03:30:07.137Z,92561.00
2023-05-11T03:31:07.153Z,92561.00
2023-05-11T03:32:07.317Z,92559.00
2023-05-11T03:33:07.280Z,92561.00
2023-05-11T03:34:07.260Z,92559.00
2023-05-11T03:35:07.392Z,92559.00
2023-05-11T03:36:07.334Z,92555.00
2023-05-11T03:37:07.374Z,92554.00
2023-05-11T03:38:07.405Z,92557.00
2023-05-11T03:39:07.433Z,92554.00
2023-05-11T03:40:07.474Z,92555.00
2023-05-11T03:41:07.511Z,92554.00
2023-05-11T03:42:07.568Z,92554.00
2023-05-11T03:43:07.628Z,92554.00
2023-05-11T03:44:07.636Z,92550.00
2023-05-11T03:45:07.802Z,92550.00
2023-05-11T03:46:07.727Z,92550.00
2023-05-11T03:47:07.766Z,92548.00
2023-05-11T03:48:07.753Z,92548.00
2023-05-11T03:49:07.800Z,92548.00
2023-05-11T03:50:07.901Z,92548.00
2023-05-11T03:51:07.852Z,92546.00
2023-05-11T03:52:07.885Z,92548.00
2023-05-11T03:53:07.905Z,92544.00
2023-05-11T03:54:07.933Z,92546.00
2023-05-11T03:55:07.974Z,92548.00
2023-05-11T03:56:08.015Z,92546.00
2023-05-11T03:57:08.027Z,92544.00
2023-05-11T03:58:08.049Z,92542.00
2023-05-11T03:59:08.082Z,92540.00
2023-05-11T04:00:08.153Z,92540.00
2023-05-11T04:01:08.151Z,92538.00
2023-05-11T04:02:08.209Z,92538.00
2023-05-11T04:03:08.292Z,92540.00
2023-05-11T04:04:08.326Z,92538.00
2023-05-11T04:05:08.300Z,92536.00
2023-05-11T04:06:08.346Z,92538.00
2023-05-11T04:07:08.404Z,92540.00
2023-05-11T04:08:08.438Z,92536.00
2023-05-11T04:09:08.573Z,92538.00
2023-05-11T04:10:08.496Z,92540.00
2023-05-11T04:11:08.510Z,92540.00
2023-05-11T04:12:08.540Z,92542.00
2023-05-11T04:13:08.574Z,92542.00
2023-05-11T04:14:08.611Z,92542.00
2023-05-11T04:15:08.635Z,92544.00
2023-05-11T04:16:08.742Z,92540.00
2023-05-11T04:17:09.444Z,92540.00
2023-05-11T04:18:08.872Z,92538.00
2023-05-11T04:19:08.863Z,92540.00
2023-05-11T04:20:08.861Z,92538.00
2023-05-11T04:21:08.895Z,92536.00
2023-05-11T04:22:08.930Z,92532.00
2023-05-11T04:23:10.412Z,92534.00
2023-05-11T04:24:09.010Z,92532.00
2023-05-11T04:25:09.947Z,92532.00
2023-05-11T04:26:09.101Z,92532.00
2023-05-11T04:27:09.140Z,92532.00
2023-05-11T04:28:09.191Z,92532.00
2023-05-11T04:29:09.280Z,92534.00
2023-05-11T04:30:09.283Z,92532.00
2023-05-11T04:31:09.372Z,92534.00
2023-05-11T04:32:09.372Z,92532.00
2023-05-11T04:33:09.404Z,92534.00
2023-05-11T04:34:09.431Z,92534.00
2023-05-11T04:35:09.474Z,92534.00
2023-05-11T04:36:09.505Z,92536.00
2023-05-11T04:37:09.552Z,92536.00
2023-05-11T04:38:09.631Z,92538.00
2023-05-11T04:39:09.626Z,92538.00
2023-05-11T04:40:09.660Z,92538.00
2023-05-11T04:41:09.695Z,92538.00
2023-05-11T04:42:09.748Z,92540.00
2023-05-11T04:43:09.780Z,92534.00
2023-05-11T04:44:09.829Z,92534.00
2023-05-11T04:45:09.865Z,92532.00
2023-05-11T04:46:09.887Z,92530.00
2023-05-11T04:47:09.963Z,92536.00
2023-05-11T04:48:09.986Z,92530.00
2023-05-11T04:49:09.983Z,92530.00
2023-05-11T04:50:10.020Z,92530.00
2023-05-11T04:51:10.063Z,92526.00
2023-05-11T04:52:10.095Z,92528.00
2023-05-11T04:53:10.198Z,92530.00
2023-05-11T04:54:10.184Z,92528.00
2023-05-11T04:55:10.228Z,92534.00
2023-05-11T04:56:10.255Z,92532.00
2023-05-11T04:57:10.272Z,92534.00
2023-05-11T04:58:10.297Z,92536.00
2023-05-11T04:59:10.337Z,92538.00
2023-05-11T05:00:10.464Z,92538.00
2023-05-11T05:01:11.030Z,92538.00
2023-05-11T05:02:10.469Z,92540.00
2023-05-11T05:03:10.587Z,92540.00
2023-05-11T05:04:10.647Z,92540.00
2023-05-11T05:05:10.600Z,92540.00
2023-05-11T05:06:10.637Z,92540.00
2023-05-11T05:07:11.458Z,92542.00
2023-05-11T05:08:10.769Z,92542.00
2023-05-11T05:09:10.743Z,92542.00
2023-05-11T05:10:10.798Z,92538.00
2023-05-11T05:11:10.809Z,92540.00
2023-05-11T05:12:10.831Z,92540.00
2023-05-11T05:13:10.883Z,92538.00
2023-05-11T05:14:10.910Z,92538.00
2023-05-11T05:15:10.944Z,92536.00
2023-05-11T05:16:11.082Z,92536.00
2023-05-11T05:17:11.063Z,92538.00
2023-05-11T05:18:11.088Z,92532.00
2023-05-11T05:19:11.071Z,92538.00
2023-05-11T05:20:11.075Z,92534.00
2023-05-11T05:21:11.185Z,92538.00
2023-05-11T05:22:11.120Z,92538.00
2023-05-11T05:23:11.142Z,92536.00
2023-05-11T05:24:11.270Z,92532.00
2023-05-11T05:25:11.169Z,92534.00
2023-05-11T05:26:11.209Z,92534.00
2023-05-11T05:27:11.231Z,92534.00
2023-05-11T05:28:11.264Z,92534.00
2023-05-11T05:29:11.261Z,92536.00
2023-05-11T05:30:11.302Z,92536.00
2023-05-11T05:31:11.367Z,92534.00
2023-05-11T05:32:11.382Z,92534.00
2023-05-11T05:33:11.457Z,92538.00
2023-05-11T05:34:12.196Z,92538.00
2023-05-11T05:35:11.575Z,92538.00
2023-05-11T05:36:11.595Z,92536.00
2023-05-11T05:37:11.698Z,92538.00
2023-05-11T05:38:11.756Z,92538.00
2023-05-11T05:39:11.877Z,92538.00
2023-05-11T05:40:11.896Z,92540.00
2023-05-11T05:41:12.021Z,92538.00
2023-05-11T05:42:12.024Z,92536.00
2023-05-11T05:43:12.057Z,92540.00
2023-05-11T05:44:12.160Z,92538.00
2023-05-11T05:45:14.612Z,92538.00
2023-05-11T05:46:12.172Z,92534.00
2023-05-11T05:47:12.157Z,92538.00
2023-05-11T05:48:12.174Z,92540.00
2023-05-11T05:49:12.157Z,92536.00
2023-05-11T05:50:12.175Z,92536.00
2023-05-11T05:51:12.238Z,92536.00
2023-05-11T05:52:12.154Z,92532.00
2023-05-11T05:53:12.152Z,92532.00
2023-05-11T05:54:12.148Z,92532.00
2023-05-11T05:55:12.166Z,92536.00
2023-05-11T05:56:12.151Z,92536.00
2023-05-11T05:57:14.353Z,92534.00
2023-05-11T05:58:12.133Z,92538.00
2023-05-11T05:59:12.179Z,92534.00
2023-05-11T06:00:12.131Z,92538.00
2023-05-11T06:01:12.123Z,92540.00
2023-05-11T06:02:12.153Z,92542.00
2023-05-11T06:03:12.186Z,92540.00
2023-05-11T06:04:12.203Z,92538.00
2023-05-11T06:05:12.188Z,92540.00
2023-05-11T06:06:12.107Z,92538.00
2023-05-11T06:07:12.097Z,92538.00
2023-05-11T06:08:12.097Z,92536.00
2023-05-11T06:09:12.096Z,92538.00
2023-05-11T06:10:12.089Z,92540.00
2023-05-11T06:11:12.085Z,92540.00
2023-05-11T06:12:12.065Z,92538.00
2023-05-11T06:13:12.061Z,92540.00
2023-05-11T06:14:12.059Z,92540.00
2023-05-11T06:15:12.067Z,92538.00
2023-05-11T06:16:12.078Z,92538.00
2023-05-11T06:17:12.035Z,92534.00
2023-05-11T06:18:12.058Z,92540.00
2023-05-11T06:19:12.093Z,92540.00
2023-05-11T06:20:12.022Z,92540.00
2023-05-11T06:21:12.021Z,92538.00
2023-05-11T06:22:12.000Z,92542.00
2023-05-11T06:23:11.991Z,92540.00
2023-05-11T06:24:12.002Z,92546.00
2023-05-11T06:25:12.043Z,92542.00
2023-05-11T06:26:11.981Z,92542.00
2023-05-11T06:27:11.960Z,92544.00
2023-05-11T06:28:11.971Z,92548.00
2023-05-11T06:29:11.959Z,92544.00
2023-05-11T06:30:11.952Z,92546.00
2023-05-11T06:31:12.019Z,92544.00
2023-05-11T06:32:11.919Z,92540.00
2023-05-11T06:33:11.908Z,92540.00
2023-05-11T06:34:11.904Z,92542.00
2023-05-11T06:35:11.867Z,92540.00
2023-05-11T06:36:11.909Z,92540.00
2023-05-11T06:37:11.822Z,92542.00
2023-05-11T06:38:12.424Z,92542.00
2023-05-11T06:39:11.803Z,92542.00
2023-05-11T06:40:11.784Z,92544.00
2023-05-11T06:41:11.771Z,92540.00
2023-05-11T06:42:11.756Z,92542.00
2023-05-11T06:43:12.741Z,92540.00
2023-05-11T06:44:11.749Z,92538.00
2023-05-11T06:45:11.745Z,92536.00
2023-05-11T06:46:11.760Z,92538.00
2023-05-11T06:47:11.668Z,92540.00
2023-05-11T06:48:11.694Z,92542.00
2023-05-11T06:49:11.641Z,92542.00
2023-05-11T06:50:12.012Z,92542.00
2023-05-11T06:51:11.650Z,92544.00
2023-05-11T06:52:12.497Z,92544.00
2023-05-11T06:53:11.578Z,92544.00
2023-05-11T06:54:11.610Z,92544.00
2023-05-11T06:55:11.629Z,92544.00
2023-05-11T06:56:11.696Z,92542.00
2023-05-11T06:57:12.731Z,92546.00
2023-05-11T06:58:11.933Z,92546.00
2023-05-11T06:59:11.974Z,92546.00
2023-05-11T07:00:11.987Z,92544.00
2023-05-11T07:01:12.070Z,92542.00
2023-05-11T07:02:12.046Z,92544.00
2023-05-11T07:03:12.555Z,92542.00
2023-05-11T07:04:12.151Z,92538.00
2023-05-11T07:05:12.139Z,92536.00
2023-05-11T07:06:12.179Z,92536.00
2023-05-11T07:07:12.235Z,92538.00
2023-05-11T07:08:12.196Z,92538.00
2023-05-11T07:09:12.215Z,92538.00
2023-05-11T07:10:12.231Z,92538.00
2023-05-11T07:11:12.266Z,92538.00
2023-05-11T07:12:12.269Z,92540.00
2023-05-11T07:13:12.291Z,92536.00
2023-05-11T07:14:12.311Z,92534.00
2023-05-11T07:15:12.301Z,92534.00
2023-05-11T07:16:12.311Z,92530.00
2023-05-11T07:17:12.499Z,92534.00
2023-05-11T07:18:12.476Z,92532.00
2023-05-11T07:19:12.430Z,92532.00
2023-05-11T07:20:12.415Z,92528.00
2023-05-11T07:21:12.478Z,92530.00
2023-05-11T07:22:14.741Z,92530.00
2023-05-11T07:23:12.614Z,92534.00
2023-05-11T07:24:12.639Z,92536.00
2023-05-11T07:25:12.705Z,92534.00
2023-05-11T07:26:12.780Z,92530.00
2023-05-11T07:27:14.448Z,92534.00
2023-05-11T07:28:12.879Z,92530.00
2023-05-11T07:29:12.906Z,92528.00
2023-05-11T07:30:12.913Z,92530.00
2023-05-11T07:31:12.949Z,92532.00
2023-05-11T07:32:12.936Z,92530.00
2023-05-11T07:33:12.951Z,92532.00
2023-05-11T07:34:13.006Z,92530.00
2023-05-11T07:35:13.052Z,92530.00
2023-05-11T07:36:13.103Z,92530.00
2023-05-11T07:37:13.169Z,92528.00
2023-05-11T07:38:13.200Z,92532.00
2023-05-11T07:39:13.237Z,92532.00
2023-05-11T07:40:13.296Z,92530.00
2023-05-11T07:41:13.340Z,92532.00
2023-05-11T07:42:13.354Z,92530.00
2023-05-11T07:43:13.377Z,92528.00
2023-05-11T07:44:14.449Z,92530.00
2023-05-11T07:45:13.427Z,92524.00
2023-05-11T07:46:14.000Z,92526.00
2023-05-11T07:47:13.510Z,92526.00
2023-05-11T07:48:13.649Z,92528.00
2023-05-11T07:49:18.992Z,92530.00
2023-05-11T07:50:14.573Z,92530.00
2023-05-11T07:51:13.545Z,92530.00
2023-05-11T07:52:13.549Z,92530.00
2023-05-11T07:53:13.517Z,92530.00
2023-05-11T07:54:13.624Z,92530.00
2023-05-11T07:55:13.500Z,92530.00
2023-05-11T07:56:13.494Z,92532.00
2023-05-11T07:57:13.464Z,92530.00
2023-05-11T07:58:13.451Z,92528.00
2023-05-11T07:59:13.429Z,92530.00
2023-05-11T08:00:13.448Z,92528.00
2023-05-11T08:01:13.479Z,92526.00
2023-05-11T08:02:13.672Z,92528.00
2023-05-11T08:03:13.570Z,92526.00
2023-05-11T08:04:13.586Z,92524.00
2023-05-11T08:05:13.600Z,92526.00
2023-05-11T08:06:13.695Z,92526.00
2023-05-11T08:07:13.674Z,92526.00
2023-05-11T08:08:13.714Z,92524.00
2023-05-11T08:09:13.739Z,92524.00
2023-05-11T08:10:13.774Z,92522.00
2023-05-11T08:11:13.798Z,92524.00
2023-05-11T08:12:13.894Z,92526.00
2023-05-11T08:13:13.869Z,92522.00
2023-05-11T08:14:13.970Z,92524.00
2023-05-11T08:15:13.938Z,92520.00
2023-05-11T08:16:14.026Z,92518.00
2023-05-11T08:17:13.925Z,92520.00
2023-05-11T08:18:14.009Z,92520.00
2023-05-11T08:19:13.961Z,92518.00
2023-05-11T08:20:14.029Z,92518.00
2023-05-11T08:21:14.062Z,92518.00
2023-05-11T08:22:14.124Z,92520.00
2023-05-11T08:23:14.188Z,92518.00
2023-05-11T08:24:14.265Z,92514.00
2023-05-11T08:25:14.341Z,92514.00
2023-05-11T08:26:14.433Z,92516.00
2023-05-11T08:27:14.496Z,92516.00
2023-05-11T08:28:14.563Z,92514.00
2023-05-11T08:29:14.687Z,92514.00
2023-05-11T08:30:14.714Z,92512.00
2023-05-11T08:31:14.838Z,92514.00
2023-05-11T08:32:14.822Z,92512.00
2023-05-11T08:33:33.987Z,92512.00
2023-05-11T08:34:19.856Z,92510.00
2023-05-11T08:35:15.000Z,92512.00
2023-05-11T08:36:14.993Z,92512.00
2023-05-11T08:37:15.036Z,92510.00
2023-05-11T08:38:15.079Z,92512.00
2023-05-11T08:39:19.006Z,92512.00
2023-05-11T08:40:16.119Z,92512.00
2023-05-11T08:41:15.123Z,92512.00
2023-05-11T08:42:15.110Z,92510.00
2023-05-11T08:43:15.124Z,92508.00
2023-05-11T08:44:15.119Z,92514.00
2023-05-11T08:45:15.127Z,92516.00
2023-05-11T08:46:15.145Z,92516.00
2023-05-11T08:47:21.769Z,92516.00
2023-05-11T08:48:16.119Z,92514.00
2023-05-11T08:49:15.132Z,92510.00
2023-05-11T08:50:15.121Z,92510.00
2023-05-11T08:51:15.118Z,92508.00
2023-05-11T08:52:15.106Z,92507.00
2023-05-11T08:53:15.107Z,92508.00
2023-05-11T08:54:15.118Z,92505.00
2023-05-11T08:55:15.095Z,92508.00
2023-05-11T08:56:15.089Z,92507.00
2023-05-11T08:57:15.078Z,92507.00
2023-05-11T08:58:15.082Z,92507.00
2023-05-11T08:59:15.062Z,92507.00
2023-05-11T09:00:15.050Z,92505.00
2023-05-11T09:01:15.115Z,92503.00
2023-05-11T09:02:15.026Z,92510.00
2023-05-11T09:03:15.083Z,92508.00
2023-05-11T09:04:15.125Z,92507.00
2023-05-11T09:05:16.327Z,92507.00
2023-05-11T09:06:15.240Z,92503.00
2023-05-11T09:07:15.276Z,92503.00
2023-05-11T09:08:15.332Z,92501.00
2023-05-11T09:09:15.356Z,92497.00
2023-05-11T09:10:16.062Z,92497.00
2023-05-11T09:11:15.451Z,92499.00
2023-05-11T09:12:15.501Z,92499.00
2023-05-11T09:13:15.552Z,92497.00
2023-05-11T09:14:15.593Z,92501.00
2023-05-11T09:15:15.655Z,92499.00
2023-05-11T09:16:32.584Z,92497.00
2023-05-11T09:17:16.710Z,92493.00
2023-05-11T09:18:15.752Z,92493.00
2023-05-11T09:19:15.674Z,92491.00
2023-05-11T09:20:15.694Z,92493.00
2023-05-11T09:21:15.653Z,92493.00
2023-05-11T09:22:15.660Z,92497.00
2023-05-11T09:23:15.662Z,92495.00
2023-05-11T09:24:15.677Z,92495.00
2023-05-11T09:25:15.683Z,92497.00
2023-05-11T09:26:15.752Z,92499.00
2023-05-11T09:27:21.139Z,92495.00
2023-05-11T09:28:16.842Z,92495.00
2023-05-11T09:29:15.781Z,92495.00
2023-05-11T09:30:22.248Z,92491.00
2023-05-11T09:31:17.632Z,92493.00
2023-05-11T09:32:15.773Z,92491.00
2023-05-11T09:33:15.756Z,92489.00
2023-05-11T09:34:15.747Z,92489.00
2023-05-11T09:35:15.781Z,92489.00
2023-05-11T09:36:15.734Z,92487.00
2023-05-11T09:37:15.738Z,92489.00
2023-05-11T09:38:15.730Z,92491.00
2023-05-11T09:39:17.081Z,92489.00
2023-05-11T09:40:33.272Z,92487.00
2023-05-11T09:41:16.771Z,92479.00
2023-05-11T09:42:15.708Z,92483.00
2023-05-11T09:43:15.692Z,92479.00
2023-05-11T09:44:15.698Z,92479.00
2023-05-11T09:45:16.218Z,92481.00
2023-05-11T09:46:15.721Z,92479.00
2023-05-11T09:47:16.562Z,92477.00
2023-05-11T09:48:15.728Z,92477.00
2023-05-11T09:49:15.648Z,92477.00
2023-05-11T09:50:15.643Z,92475.00
2023-05-11T09:51:15.623Z,92473.00
2023-05-11T09:52:15.630Z,92471.00
2023-05-11T09:53:15.610Z,92471.00
2023-05-11T09:54:15.604Z,92469.00
2023-05-11T09:55:15.669Z,92467.00
2023-05-11T09:56:15.675Z,92467.00
2023-05-11T09:57:15.583Z,92465.00
2023-05-11T09:58:15.597Z,92465.00
2023-05-11T09:59:15.588Z,92467.00
2023-05-11T10:00:15.586Z,92469.00
2023-05-11T10:01:15.657Z,92467.00
2023-05-11T10:02:15.621Z,92465.00
2023-05-11T10:03:15.638Z,92465.00
2023-05-11T10:04:23.526Z,92463.00
2023-05-11T10:05:16.809Z,92461.00
2023-05-11T10:06:16.476Z,92458.00
2023-05-11T10:07:16.095Z,92458.00
2023-05-11T10:08:16.094Z,92456.00
2023-05-11T10:09:15.583Z,92452.00
2023-05-11T10:10:15.618Z,92454.00
2023-05-11T10:11:15.569Z,92452.00
2023-05-11T10:12:15.634Z,92452.00
2023-05-11T10:13:15.554Z,92452.00
2023-05-11T10:14:15.545Z,92450.00
2023-05-11T10:15:15.545Z,92450.00
2023-05-11T10:16:15.572Z,92446.00
2023-05-11T10:17:15.537Z,92446.00
2023-05-11T10:18:16.500Z,92446.00
2023-05-11T10:19:15.730Z,92444.00
2023-05-11T10:20:15.723Z,92444.00
2023-05-11T10:21:15.707Z,92444.00
2023-05-11T10:22:15.728Z,92442.00
2023-05-11T10:23:15.787Z,92438.00
2023-05-11T10:24:18.247Z,92440.00
2023-05-11T10:25:15.733Z,92440.00
2023-05-11T10:26:15.719Z,92436.00
2023-05-11T10:27:15.723Z,92434.00
2023-05-11T10:28:15.700Z,92438.00
2023-05-11T10:29:15.694Z,92436.00
2023-05-11T10:30:15.752Z,92434.00
2023-05-11T10:31:16.167Z,92432.00
2023-05-11T10:32:15.680Z,92432.00
2023-05-11T10:33:15.666Z,92430.00
2023-05-11T10:34:15.653Z,92430.00
2023-05-11T10:35:15.641Z,92428.00
2023-05-11T10:36:19.478Z,92424.00
2023-05-11T10:37:15.612Z,92424.00
2023-05-11T10:38:15.606Z,92424.00
2023-05-11T10:39:15.592Z,92422.00
2023-05-11T10:40:15.694Z,92424.00
2023-05-11T10:41:15.576Z,92424.00
2023-05-11T10:42:15.556Z,92420.00
2023-05-11T10:43:15.530Z,92420.00
2023-05-11T10:44:15.578Z,92416.00
2023-05-11T10:45:15.530Z,92412.00
2023-05-11T10:46:15.585Z,92412.00
2023-05-11T10:47:15.501Z,92414.00
2023-05-11T10:48:15.488Z,92412.00
2023-05-11T10:49:15.501Z,92410.00
2023-05-11T10:50:15.504Z,92410.00
2023-05-11T10:51:15.435Z,92405.00
2023-05-11T10:52:15.459Z,92403.00
2023-05-11T10:53:15.425Z,92403.00
2023-05-11T10:54:15.437Z,92401.00
2023-05-11T10:55:15.478Z,92399.00
2023-05-11T10:56:15.402Z,92399.00
2023-05-11T10:57:15.379Z,92397.00
2023-05-11T10:58:15.368Z,92399.00
2023-05-11T10:59:15.361Z,92395.00
2023-05-11T11:00:15.458Z,92397.00
2023-05-11T11:01:15.375Z,92395.00
2023-05-11T11:02:15.343Z,92395.00
2023-05-11T11:03:15.329Z,92395.00
2023-05-11T11:04:15.358Z,92385.00
2023-05-11T11:05:15.313Z,92387.00
2023-05-11T11:06:15.345Z,92387.00
2023-05-11T11:07:15.326Z,92389.00
2023-05-11T11:08:15.263Z,92389.00
2023-05-11T11:09:15.249Z,92387.00
2023-05-11T11:10:15.230Z,92389.00
2023-05-11T11:11:15.238Z,92389.00
2023-05-11T11:12:15.209Z,92389.00
2023-05-11T11:13:15.212Z,92385.00
2023-05-11T11:14:15.315Z,92387.00
2023-05-11T11:15:15.173Z,92385.00
2023-05-11T11:16:16.711Z,92385.00
2023-05-11T11:17:15.466Z,92385.00
2023-05-11T11:18:15.146Z,92385.00
2023-05-11T11:19:15.139Z,92389.00
2023-05-11T11:20:15.129Z,92389.00
2023-05-11T11:21:15.134Z,92385.00
2023-05-11T11:22:15.103Z,92385.00
2023-05-11T11:23:15.095Z,92381.00
2023-05-11T11:24:15.092Z,92381.00
2023-05-11T11:25:15.072Z,92379.00
2023-05-11T11:26:15.053Z,92381.00
2023-05-11T11:27:15.050Z,92377.00
2023-05-11T11:28:15.032Z,92377.00
2023-05-11T11:29:15.023Z,92377.00
2023-05-11T11:30:15.017Z,92379.00
2023-05-11T11:31:15.024Z,92375.00
2023-05-11T11:32:15.006Z,92379.00
2023-05-11T11:33:15.070Z,92379.00
2023-05-11T11:34:14.980Z,92381.00
2023-05-11T11:35:14.975Z,92381.00
2023-05-11T11:36:14.971Z,92377.00
2023-05-11T11:37:14.998Z,92377.00
2023-05-11T11:38:14.970Z,92379.00
2023-05-11T11:39:14.957Z,92381.00
2023-05-11T11:40:15.836Z,92377.00
2023-05-11T11:41:15.018Z,92377.00
2023-05-11T11:42:14.921Z,92375.00
2023-05-11T11:43:14.918Z,92375.00
2023-05-11T11:44:15.634Z,92377.00
2023-05-11T11:45:14.881Z,92375.00